Lutcher, Louisiana
Current Conditions -  °F | °C
As of 8:55 AM on Wednesday 22 Oct 2014 (Local Time) from K1L0 Reporting Station
Clear Clear  
Wind Chill: 69°   Ceiling: Unl
Heat Index: 69°   Visibility: 10mi
Dew Point: 60°   Wind: 5mph
Humidity: 72%   Direction: 50°NE
Pressure: 30.09"   Gusts: NA
Location:  30.04°N, 90.7°W
Report Text: K1L0 221355Z AUTO 05004KT 10SM CLR 21/15 A3009 RMK AO2 T02060154
Loading
Personal Weather Stations






























Interactive Weather Map
Tropical Storm Tracking
New forecast layout! Learn more

10-Day Weather Forecast

Advertisements
Track Severe Weather on mobile